sensor_id;sensor_type;location;lat;lon;timestamp;P1;durP1;ratioP1;P2;durP2;ratioP2
35243;SDS011;37916;52.160;21.066;2022-09-02T04:38:51;11.23;;;2.08;;
35243;SDS011;37916;52.160;21.066;2022-09-02T04:48:53;13.10;;;2.10;;
35243;SDS011;37916;52.160;21.066;2022-09-02T06:10:59;2.15;;;1.00;;
35243;SDS011;37916;52.160;21.066;2022-09-02T06:21:02;3.47;;;1.00;;
35243;SDS011;37916;52.160;21.066;2022-09-02T06:41:32;1.05;;;0.60;;
35243;SDS011;37916;52.160;21.066;2022-09-02T06:51:41;2.42;;;0.68;;
35243;SDS011;37916;52.160;21.066;2022-09-02T07:01:43;2.72;;;0.80;;
35243;SDS011;37916;52.160;21.066;2022-09-02T07:11:46;2.70;;;0.90;;
35243;SDS011;37916;52.160;21.066;2022-09-02T07:21:50;2.97;;;0.70;;
35243;SDS011;37916;52.160;21.066;2022-09-02T07:31:56;1.88;;;0.60;;
35243;SDS011;37916;52.160;21.066;2022-09-02T07:42:02;4.32;;;0.60;;
35243;SDS011;37916;52.160;21.066;2022-09-02T07:52:04;3.35;;;0.82;;
35243;SDS011;37916;52.160;21.066;2022-09-02T08:02:07;2.15;;;0.63;;
35243;SDS011;37916;52.160;21.066;2022-09-02T08:12:53;2.38;;;0.40;;
35243;SDS011;37916;52.160;21.066;2022-09-02T08:23:05;1.85;;;0.47;;
35243;SDS011;37916;52.160;21.066;2022-09-02T09:26:04;0.27;;;0.20;;
35243;SDS011;37916;52.160;21.066;2022-09-02T10:07:17;2.95;;;0.50;;
35243;SDS011;37916;52.160;21.066;2022-09-02T10:18:18;1.30;;;0.20;;
35243;SDS011;37916;52.160;21.066;2022-09-02T10:28:31;0.20;;;0.20;;
35243;SDS011;37916;52.160;21.066;2022-09-02T10:39:18;4.03;;;0.33;;
35243;SDS011;37916;52.160;21.066;2022-09-02T10:50:23;0.40;;;0.15;;
35243;SDS011;37916;52.160;21.066;2022-09-02T11:00:48;1.38;;;0.28;;
35243;SDS011;37916;52.160;21.066;2022-09-02T12:45:05;0.82;;;0.30;;
35243;SDS011;37916;52.160;21.066;2022-09-02T12:55:19;2.28;;;0.38;;
35243;SDS011;37916;52.160;21.066;2022-09-02T13:58:53;1.60;;;0.55;;
35243;SDS011;37916;52.160;21.066;2022-09-02T14:09:01;0.90;;;0.30;;
35243;SDS011;37916;52.160;21.066;2022-09-02T14:19:09;1.55;;;0.30;;
35243;SDS011;37916;52.160;21.066;2022-09-02T14:29:11;0.80;;;0.40;;
35243;SDS011;37916;52.160;21.066;2022-09-02T14:39:19;2.50;;;0.43;;
35243;SDS011;37916;52.160;21.066;2022-09-02T14:49:46;0.82;;;0.20;;
35243;SDS011;37916;52.160;21.066;2022-09-02T15:00:00;0.40;;;0.28;;
35243;SDS011;37916;52.160;21.066;2022-09-02T15:10:24;0.85;;;0.30;;
35243;SDS011;37916;52.160;21.066;2022-09-02T15:42:32;1.52;;;0.40;;
35243;SDS011;37916;52.160;21.066;2022-09-02T16:03:44;0.52;;;0.22;;
35243;SDS011;37916;52.160;21.066;2022-09-02T16:14:12;1.67;;;0.25;;
35243;SDS011;37916;52.160;21.066;2022-09-02T16:24:37;0.82;;;0.30;;
35243;SDS011;37916;52.160;21.066;2022-09-02T16:46:10;0.50;;;0.30;;
35243;SDS011;37916;52.160;21.066;2022-09-02T16:56:58;0.68;;;0.40;;
35243;SDS011;37916;52.160;21.066;2022-09-02T17:07:08;4.07;;;0.80;;
35243;SDS011;37916;52.160;21.066;2022-09-02T17:27:28;1.42;;;0.50;;
35243;SDS011;37916;52.160;21.066;2022-09-02T17:37:36;2.77;;;0.40;;
35243;SDS011;37916;52.160;21.066;2022-09-02T17:47:45;0.90;;;0.60;;
35243;SDS011;37916;52.160;21.066;2022-09-02T17:57:54;1.95;;;0.65;;
35243;SDS011;37916;52.160;21.066;2022-09-02T18:18:54;3.85;;;0.82;;
35243;SDS011;37916;52.160;21.066;2022-09-02T18:29:09;3.03;;;0.90;;
35243;SDS011;37916;52.160;21.066;2022-09-02T18:49:40;5.68;;;1.10;;
35243;SDS011;37916;52.160;21.066;2022-09-02T19:10:04;10.07;;;1.50;;
35243;SDS011;37916;52.160;21.066;2022-09-02T19:20:08;4.82;;;1.40;;
35243;SDS011;37916;52.160;21.066;2022-09-02T19:30:13;4.07;;;1.50;;
35243;SDS011;37916;52.160;21.066;2022-09-02T19:40:18;8.43;;;2.00;;
35243;SDS011;37916;52.160;21.066;2022-09-02T19:50:21;4.17;;;1.83;;
35243;SDS011;37916;52.160;21.066;2022-09-02T20:00:28;4.75;;;1.70;;
35243;SDS011;37916;52.160;21.066;2022-09-02T20:10:30;6.43;;;1.90;;
35243;SDS011;37916;52.160;21.066;2022-09-02T20:20:31;4.97;;;1.73;;
35243;SDS011;37916;52.160;21.066;2022-09-02T20:30:31;6.65;;;2.63;;
35243;SDS011;37916;52.160;21.066;2022-09-02T20:40:41;5.43;;;2.20;;
35243;SDS011;37916;52.160;21.066;2022-09-02T21:01:01;6.63;;;2.72;;
35243;SDS011;37916;52.160;21.066;2022-09-02T21:11:34;9.57;;;2.88;;
35243;SDS011;37916;52.160;21.066;2022-09-02T21:21:46;7.18;;;3.25;;
35243;SDS011;37916;52.160;21.066;2022-09-02T21:42:19;6.25;;;2.53;;
35243;SDS011;37916;52.160;21.066;2022-09-02T22:13:16;6.45;;;3.03;;
35243;SDS011;37916;52.160;21.066;2022-09-02T22:23:21;7.03;;;2.80;;
35243;SDS011;37916;52.160;21.066;2022-09-02T22:33:27;6.82;;;3.10;;
35243;SDS011;37916;52.160;21.066;2022-09-02T22:43:34;4.55;;;2.08;;
35243;SDS011;37916;52.160;21.066;2022-09-02T22:53:39;5.72;;;2.53;;
35243;SDS011;37916;52.160;21.066;2022-09-02T23:03:41;6.07;;;2.55;;
35243;SDS011;37916;52.160;21.066;2022-09-02T23:24:04;5.72;;;2.40;;
35243;SDS011;37916;52.160;21.066;2022-09-02T23:44:33;7.53;;;2.70;;
35243;SDS011;37916;52.160;21.066;2022-09-02T23:54:45;4.10;;;2.45;;
